createdAt,value
2024-01-12T00:01:38.132Z,21.90
2024-01-12T00:04:04.528Z,21.93
2024-01-12T00:06:31.653Z,22.30
2024-01-12T00:08:58.412Z,20.43
2024-01-12T00:11:24.856Z,21.93
2024-01-12T00:13:50.890Z,20.13
2024-01-12T00:16:20.215Z,22.10
2024-01-12T00:18:46.485Z,21.87
2024-01-12T00:21:12.704Z,22.17
2024-01-12T00:23:39.578Z,21.73
2024-01-12T00:26:05.780Z,21.77
2024-01-12T00:28:32.591Z,21.63
2024-01-12T00:30:59.173Z,20.80
2024-01-12T00:33:25.687Z,21.60
2024-01-12T00:35:52.124Z,22.80
2024-01-12T00:38:18.484Z,23.47
2024-01-12T00:40:45.488Z,23.73
2024-01-12T00:43:11.659Z,23.30
2024-01-12T00:45:38.015Z,23.37
2024-01-12T00:48:06.086Z,23.17
2024-01-12T00:50:32.391Z,24.50
2024-01-12T00:52:58.579Z,23.93
2024-01-12T00:55:24.779Z,26.27
2024-01-12T00:57:51.657Z,24.80
2024-01-12T01:00:18.305Z,25.57
2024-01-12T01:02:44.621Z,26.20
2024-01-12T01:05:10.823Z,26.00
2024-01-12T01:07:37.211Z,25.50
2024-01-12T01:10:03.911Z,25.50
2024-01-12T01:12:30.091Z,24.80
2024-01-12T01:14:57.404Z,25.50
2024-01-12T01:17:24.964Z,24.97
2024-01-12T01:19:51.422Z,26.23
2024-01-12T01:22:17.913Z,25.13
2024-01-12T01:24:44.161Z,24.70
2024-01-12T01:27:10.393Z,25.50
2024-01-12T01:29:36.660Z,26.93
2024-01-12T01:32:03.997Z,25.60
2024-01-12T01:34:30.414Z,24.83
2024-01-12T01:37:02.286Z,24.93
2024-01-12T01:39:28.606Z,25.30
2024-01-12T01:41:55.000Z,25.43
2024-01-12T01:44:21.308Z,24.70
2024-01-12T01:46:47.628Z,27.07
2024-01-12T01:49:14.721Z,27.60
2024-01-12T01:51:41.154Z,27.23
2024-01-12T01:54:07.406Z,26.53
2024-01-12T01:56:33.999Z,28.10
2024-01-12T01:59:00.261Z,26.70
2024-01-12T02:01:26.565Z,28.67
2024-01-12T02:03:53.247Z,27.97
2024-01-12T02:06:20.287Z,29.23
2024-01-12T02:08:47.600Z,29.03
2024-01-12T02:11:14.030Z,27.93
2024-01-12T02:13:40.294Z,28.03
2024-01-12T02:16:09.538Z,29.17
2024-01-12T02:18:36.168Z,28.17
2024-01-12T02:21:03.325Z,29.20
2024-01-12T02:23:29.586Z,30.07
2024-01-12T02:25:55.914Z,28.50
2024-01-12T02:28:22.144Z,28.87
2024-01-12T02:30:48.425Z,30.27
2024-01-12T02:33:14.983Z,28.67
2024-01-12T02:35:41.425Z,30.07
2024-01-12T02:38:08.259Z,28.70
2024-01-12T02:40:34.550Z,29.97
2024-01-12T02:43:00.975Z,29.40
2024-01-12T02:45:27.196Z,29.07
2024-01-12T02:47:53.570Z,29.23
2024-01-12T02:50:19.794Z,28.37
2024-01-12T02:52:46.114Z,30.27
2024-01-12T02:55:12.912Z,30.37
2024-01-12T02:57:39.185Z,31.17
2024-01-12T03:00:08.244Z,30.37
2024-01-12T03:02:34.983Z,30.77
2024-01-12T03:05:01.826Z,30.97
2024-01-12T03:07:28.192Z,31.10
2024-01-12T03:09:54.450Z,30.57
2024-01-12T03:12:21.428Z,30.37
2024-01-12T03:14:48.132Z,31.87
2024-01-12T03:17:14.424Z,34.03
2024-01-12T03:19:40.651Z,31.53
2024-01-12T03:22:06.821Z,31.57
2024-01-12T03:24:33.077Z,30.23
2024-01-12T03:26:59.423Z,32.83
2024-01-12T03:29:26.368Z,31.83
2024-01-12T03:31:52.574Z,33.77
2024-01-12T03:34:19.013Z,32.40
2024-01-12T03:36:45.340Z,32.77
2024-01-12T03:39:11.566Z,32.33
2024-01-12T03:41:37.814Z,32.43
2024-01-12T03:44:04.334Z,33.80
2024-01-12T03:46:31.232Z,32.63
2024-01-12T03:48:57.563Z,31.73
2024-01-12T03:51:23.976Z,33.50
2024-01-12T03:53:50.205Z,35.30
2024-01-12T03:56:16.456Z,35.47
2024-01-12T03:58:43.890Z,35.37
2024-01-12T04:01:10.366Z,36.13
2024-01-12T04:03:37.774Z,35.33
2024-01-12T04:06:08.175Z,34.93
2024-01-12T04:08:34.587Z,34.23
2024-01-12T04:11:00.849Z,36.23
2024-01-12T04:13:27.090Z,34.27
2024-01-12T04:15:53.948Z,35.57
2024-01-12T04:18:20.996Z,34.47
2024-01-12T04:20:48.058Z,36.07
2024-01-12T04:23:14.298Z,34.97
2024-01-12T04:25:40.607Z,35.93
2024-01-12T04:28:07.617Z,35.47
2024-01-12T04:30:34.160Z,35.43
2024-01-12T04:33:00.574Z,35.60
2024-01-12T04:35:26.890Z,34.80
2024-01-12T04:37:53.808Z,35.00
2024-01-12T04:40:20.078Z,34.37
2024-01-12T04:42:46.294Z,33.83
2024-01-12T04:45:12.540Z,33.77
2024-01-12T04:47:38.832Z,33.80
2024-01-12T04:50:05.782Z,35.60
2024-01-12T04:52:32.033Z,33.43
2024-01-12T04:54:58.866Z,33.00
2024-01-12T04:57:25.040Z,35.00
2024-01-12T04:59:51.452Z,35.93
2024-01-12T05:02:17.679Z,34.90
2024-01-12T05:04:43.893Z,33.20
2024-01-12T05:07:10.247Z,32.17
2024-01-12T05:09:36.500Z,35.23
2024-01-12T05:12:05.188Z,32.53
2024-01-12T05:14:32.134Z,33.57
2024-01-12T05:16:58.425Z,32.63
2024-01-12T05:19:24.741Z,34.97
2024-01-12T05:21:51.025Z,23.10
2024-01-12T05:24:17.419Z,24.67
2024-01-12T05:26:44.222Z,45.93
2024-01-12T05:29:13.000Z,37.13
2024-01-12T05:31:39.233Z,33.63
2024-01-12T05:34:05.486Z,32.53
2024-01-12T05:36:31.696Z,32.07
2024-01-12T05:38:58.103Z,32.07
2024-01-12T05:41:24.396Z,33.57
2024-01-12T05:43:50.705Z,32.73
2024-01-12T05:46:19.438Z,31.30
2024-01-12T05:48:45.905Z,33.37
2024-01-12T05:51:12.957Z,34.17
2024-01-12T05:53:39.267Z,34.13
2024-01-12T05:56:06.057Z,32.93
2024-01-12T05:58:32.555Z,34.00
2024-01-12T06:00:59.509Z,33.83
2024-01-12T06:03:28.496Z,35.13
2024-01-12T06:05:54.928Z,32.77
2024-01-12T06:08:21.310Z,34.37
2024-01-12T06:10:47.673Z,32.80
2024-01-12T06:13:14.465Z,33.90
2024-01-12T06:15:41.248Z,32.77
2024-01-12T06:18:07.681Z,33.57
2024-01-12T06:20:34.755Z,34.93
2024-01-12T06:23:01.707Z,34.17
2024-01-12T06:25:29.662Z,33.97
2024-01-12T06:27:55.958Z,32.97
2024-01-12T06:30:22.249Z,34.67
2024-01-12T06:32:48.734Z,33.80
2024-01-12T06:35:15.502Z,34.17
2024-01-12T06:37:42.725Z,33.00
2024-01-12T06:40:10.783Z,33.60
2024-01-12T06:42:37.151Z,33.33
2024-01-12T06:45:07.586Z,32.23
2024-01-12T06:47:34.055Z,31.50
2024-01-12T06:50:00.809Z,31.23
2024-01-12T06:52:27.127Z,31.57
2024-01-12T06:54:54.095Z,29.53
2024-01-12T06:57:20.338Z,29.70
2024-01-12T06:59:46.591Z,31.00
2024-01-12T07:02:13.254Z,27.27
2024-01-12T07:04:39.513Z,27.43
2024-01-12T07:07:06.079Z,27.80
2024-01-12T07:09:32.512Z,26.90
2024-01-12T07:11:59.504Z,26.13
2024-01-12T07:14:25.778Z,23.87
2024-01-12T07:16:52.128Z,25.47
2024-01-12T07:19:18.570Z,24.07
2024-01-12T07:21:44.989Z,25.07
2024-01-12T07:24:11.272Z,23.70
2024-01-12T07:26:37.491Z,24.40
2024-01-12T07:29:04.463Z,22.23
2024-01-12T07:31:31.538Z,22.03
2024-01-12T07:33:57.980Z,22.43
2024-01-12T07:36:24.385Z,21.97
2024-01-12T07:38:50.619Z,22.47
2024-01-12T07:41:16.912Z,21.40
2024-01-12T07:43:43.169Z,23.27
2024-01-12T07:46:11.418Z,21.37
2024-01-12T07:48:37.819Z,22.37
2024-01-12T07:51:05.356Z,19.63
2024-01-12T07:53:31.643Z,19.93
2024-01-12T07:55:58.197Z,16.47
2024-01-12T07:58:24.360Z,18.23
2024-01-12T08:00:50.894Z,19.20
2024-01-12T08:03:18.046Z,16.23
2024-01-12T08:05:45.112Z,14.40
2024-01-12T08:08:11.429Z,15.67
2024-01-12T08:10:37.588Z,14.40
2024-01-12T08:13:04.659Z,14.83
2024-01-12T08:15:30.859Z,15.77
2024-01-12T08:17:57.126Z,15.47
2024-01-12T08:20:23.993Z,14.70
2024-01-12T08:22:50.194Z,15.03
2024-01-12T08:25:17.064Z,15.63
2024-01-12T08:27:43.306Z,14.73
2024-01-12T08:30:10.048Z,16.13
2024-01-12T08:32:36.675Z,14.57
2024-01-12T08:35:03.451Z,13.67
2024-01-12T08:37:30.329Z,16.33
2024-01-12T08:39:56.593Z,15.23
2024-01-12T08:42:22.879Z,14.57
2024-01-12T08:44:49.150Z,14.57
2024-01-12T08:47:15.836Z,15.80
2024-01-12T08:49:42.205Z,14.73
2024-01-12T08:52:08.469Z,15.40
2024-01-12T08:54:35.302Z,16.37
2024-01-12T08:57:01.570Z,17.13
2024-01-12T08:59:28.741Z,16.33
2024-01-12T09:01:56.462Z,16.17
2024-01-12T09:04:23.555Z,16.87
2024-01-12T09:06:50.151Z,17.27
2024-01-12T09:09:16.356Z,17.90
2024-01-12T09:11:43.383Z,18.23
2024-01-12T09:14:10.653Z,19.40
2024-01-12T09:16:37.182Z,18.63
2024-01-12T09:19:03.859Z,18.30
2024-01-12T09:21:30.195Z,20.17
2024-01-12T09:23:56.526Z,18.77
2024-01-12T09:26:23.614Z,18.63
2024-01-12T09:28:50.487Z,19.17
2024-01-12T09:31:16.774Z,20.37
2024-01-12T09:33:43.312Z,21.23
2024-01-12T09:36:09.837Z,21.20
2024-01-12T09:38:36.138Z,19.83
2024-01-12T09:41:03.366Z,20.83
2024-01-12T09:43:30.079Z,20.03
2024-01-12T09:45:59.752Z,21.43
2024-01-12T09:48:27.536Z,21.60
2024-01-12T09:50:54.738Z,22.30
2024-01-12T09:53:22.659Z,22.57
2024-01-12T09:55:50.818Z,22.37
2024-01-12T09:58:22.021Z,22.70
2024-01-12T10:00:48.856Z,23.40
2024-01-12T10:03:17.510Z,23.90
2024-01-12T10:05:44.488Z,24.70
2024-01-12T10:08:10.729Z,23.77
2024-01-12T10:10:39.241Z,24.00
2024-01-12T10:13:05.439Z,23.00
2024-01-12T10:15:32.925Z,24.63
2024-01-12T10:17:59.232Z,24.70
2024-01-12T10:20:26.214Z,24.50
2024-01-12T10:22:56.630Z,22.47
2024-01-12T10:25:22.844Z,25.17
2024-01-12T10:27:54.948Z,25.20
2024-01-12T10:30:22.136Z,25.43
2024-01-12T10:32:50.706Z,26.13
2024-01-12T10:35:17.009Z,26.43
2024-01-12T10:37:45.674Z,26.60
2024-01-12T10:40:12.318Z,26.63
2024-01-12T10:42:39.623Z,26.57
2024-01-12T10:45:07.309Z,24.87
2024-01-12T10:47:34.315Z,26.50
2024-01-12T10:50:05.245Z,26.23
2024-01-12T10:52:38.971Z,26.00
2024-01-12T10:55:08.436Z,27.20
2024-01-12T10:57:34.663Z,28.27
2024-01-12T11:00:01.810Z,27.97
2024-01-12T11:02:28.320Z,27.63
2024-01-12T11:04:56.390Z,28.00
2024-01-12T11:07:23.075Z,27.50
2024-01-12T11:09:51.032Z,28.93
2024-01-12T11:12:22.987Z,28.87
2024-01-12T11:14:49.230Z,28.03
2024-01-12T11:17:15.440Z,29.20
2024-01-12T11:19:41.713Z,30.83
2024-01-12T11:22:08.939Z,29.00
2024-01-12T11:24:36.254Z,30.53
2024-01-12T11:27:03.415Z,31.50
2024-01-12T11:29:30.627Z,33.00
2024-01-12T11:32:00.945Z,32.07
2024-01-12T11:34:31.493Z,33.33
2024-01-12T11:36:58.997Z,31.87
2024-01-12T11:39:25.197Z,33.67
2024-01-12T11:41:53.495Z,31.60
2024-01-12T11:44:19.682Z,34.03
2024-01-12T11:46:48.440Z,34.10
2024-01-12T11:49:15.976Z,34.53
2024-01-12T11:51:43.903Z,34.70
2024-01-12T11:54:10.878Z,36.30
2024-01-12T11:56:37.424Z,35.03
2024-01-12T11:59:03.810Z,36.53
2024-01-12T12:01:32.011Z,34.47
2024-01-12T12:03:58.869Z,33.33
2024-01-12T12:06:25.528Z,33.23
2024-01-12T12:08:56.179Z,33.27
2024-01-12T12:11:22.505Z,35.07
2024-01-12T12:13:51.283Z,31.80
2024-01-12T12:16:17.766Z,33.23
2024-01-12T12:18:44.852Z,32.13
2024-01-12T12:21:12.711Z,33.80
2024-01-12T12:23:41.788Z,31.23
2024-01-12T12:26:08.963Z,29.90
2024-01-12T12:28:35.387Z,30.03
2024-01-12T12:31:02.459Z,27.97
2024-01-12T12:33:29.023Z,26.20
2024-01-12T12:36:07.280Z,27.03
2024-01-12T12:38:37.272Z,28.03
2024-01-12T12:41:03.871Z,24.80
2024-01-12T12:43:30.058Z,21.80
2024-01-12T12:45:56.404Z,20.97
2024-01-12T12:48:25.428Z,20.93
2024-01-12T12:50:51.725Z,20.70
2024-01-12T12:53:17.991Z,18.70
2024-01-12T12:55:46.726Z,19.53
2024-01-12T12:58:13.056Z,18.37
2024-01-12T13:00:39.408Z,18.43
2024-01-12T13:03:05.823Z,20.37
2024-01-12T13:05:36.711Z,18.73
2024-01-12T13:08:03.248Z,18.10
2024-01-12T13:10:29.613Z,18.57
2024-01-12T13:12:56.442Z,17.80
2024-01-12T13:15:22.648Z,17.97
2024-01-12T13:17:48.921Z,18.67
2024-01-12T13:20:16.758Z,18.90
2024-01-12T13:22:42.951Z,18.83
2024-01-12T13:25:09.387Z,18.83
2024-01-12T13:27:37.768Z,17.97
2024-01-12T13:30:08.437Z,18.77
2024-01-12T13:32:35.011Z,18.33
2024-01-12T13:35:01.748Z,18.83
2024-01-12T13:37:28.030Z,19.23
2024-01-12T13:39:54.217Z,18.50
2024-01-12T13:42:20.496Z,18.27
2024-01-12T13:44:46.774Z,18.97
2024-01-12T13:47:13.953Z,17.57
2024-01-12T13:49:40.835Z,19.40
2024-01-12T13:52:08.816Z,18.90
2024-01-12T13:54:35.139Z,19.03
2024-01-12T13:57:01.595Z,20.37
2024-01-12T13:59:27.998Z,19.53
2024-01-12T14:01:54.205Z,20.40
2024-01-12T14:04:21.129Z,20.97
2024-01-12T14:06:47.580Z,14.43
2024-01-12T14:09:15.375Z,19.07
2024-01-12T14:11:41.935Z,25.10
2024-01-12T14:14:08.267Z,26.13
2024-01-12T14:16:34.458Z,23.93
2024-01-12T14:19:00.974Z,20.60
2024-01-12T14:21:28.244Z,19.60
2024-01-12T14:23:54.456Z,19.23
2024-01-12T14:26:20.790Z,19.00
2024-01-12T14:28:47.368Z,19.47
2024-01-12T14:31:13.771Z,19.67
2024-01-12T14:33:40.269Z,19.00
2024-01-12T14:36:07.577Z,19.40
2024-01-12T14:38:34.636Z,20.00
2024-01-12T14:41:00.873Z,21.17
2024-01-12T14:43:27.119Z,20.73
2024-01-12T14:45:53.427Z,22.17
2024-01-12T14:48:19.859Z,21.43
2024-01-12T14:51:06.952Z,21.43
2024-01-12T14:53:37.377Z,20.67
2024-01-12T14:56:04.151Z,21.67
2024-01-12T14:58:37.589Z,20.53
2024-01-12T15:01:11.524Z,21.47
2024-01-12T15:03:38.331Z,22.27
2024-01-12T15:06:05.559Z,21.90
2024-01-12T15:08:33.844Z,21.57
2024-01-12T15:11:01.133Z,21.40
2024-01-12T15:13:27.681Z,20.73
2024-01-12T15:15:54.011Z,22.30
2024-01-12T15:18:20.375Z,22.30
2024-01-12T15:20:47.215Z,21.83
2024-01-12T15:23:13.762Z,21.57
2024-01-12T15:25:39.948Z,23.03
2024-01-12T15:28:06.859Z,22.67
2024-01-12T15:30:35.711Z,22.03
2024-01-12T15:33:03.670Z,21.97
2024-01-12T15:35:30.141Z,23.50
2024-01-12T15:37:56.932Z,21.77
2024-01-12T15:40:23.152Z,23.53
2024-01-12T15:42:50.304Z,21.93
2024-01-12T15:45:17.626Z,21.80
2024-01-12T15:47:44.486Z,21.50
2024-01-12T15:50:11.017Z,23.70
2024-01-12T15:52:37.337Z,24.50
2024-01-12T15:55:04.303Z,23.63
2024-01-12T15:57:30.599Z,22.60
2024-01-12T15:59:56.844Z,23.50
2024-01-12T16:02:23.809Z,24.40
2024-01-12T16:04:49.977Z,23.67
2024-01-12T16:07:17.622Z,23.33
2024-01-12T16:09:43.847Z,24.13
2024-01-12T16:12:10.536Z,22.90
2024-01-12T16:14:38.463Z,24.07
2024-01-12T16:17:04.750Z,23.37
2024-01-12T16:19:31.742Z,24.40
2024-01-12T16:21:58.273Z,25.33
2024-01-12T16:24:24.746Z,25.27
2024-01-12T16:26:51.052Z,26.00
2024-01-12T16:29:17.270Z,27.17
2024-01-12T16:31:43.761Z,26.23
2024-01-12T16:34:10.572Z,26.17
2024-01-12T16:36:37.798Z,27.53
2024-01-12T16:39:04.359Z,27.27
2024-01-12T16:41:30.753Z,27.40
2024-01-12T16:43:56.953Z,26.93
2024-01-12T16:46:23.187Z,26.93
2024-01-12T16:48:50.503Z,30.80
2024-01-12T16:51:17.096Z,29.53
2024-01-12T16:53:44.011Z,29.13
2024-01-12T16:56:10.466Z,28.67
2024-01-12T16:58:37.478Z,27.87
2024-01-12T17:01:03.991Z,29.10
2024-01-12T17:03:31.143Z,30.60
2024-01-12T17:05:57.621Z,30.17
2024-01-12T17:08:23.993Z,28.83
2024-01-12T17:10:50.829Z,28.70
2024-01-12T17:13:17.389Z,28.70
2024-01-12T17:15:46.032Z,31.63
2024-01-12T17:18:19.167Z,29.20
2024-01-12T17:20:49.128Z,29.70
2024-01-12T17:23:15.551Z,28.07
2024-01-12T17:25:41.849Z,27.37
2024-01-12T17:28:08.727Z,28.20
2024-01-12T17:30:40.479Z,28.77
2024-01-12T17:33:10.817Z,27.93
2024-01-12T17:35:37.147Z,28.13
2024-01-12T17:38:03.595Z,28.73
2024-01-12T17:40:29.760Z,28.70
2024-01-12T17:42:55.921Z,27.97
2024-01-12T17:45:24.793Z,27.83
2024-01-12T17:47:52.896Z,27.23
2024-01-12T17:50:19.188Z,27.30
2024-01-12T17:52:45.448Z,30.20
2024-01-12T17:55:11.711Z,27.47
2024-01-12T17:57:37.918Z,27.33
2024-01-12T18:00:06.673Z,27.30
2024-01-12T18:02:34.458Z,28.47
2024-01-12T18:05:00.678Z,27.73
2024-01-12T18:07:28.242Z,25.93
2024-01-12T18:09:54.397Z,26.67
2024-01-12T18:12:22.766Z,26.10
2024-01-12T18:14:50.730Z,27.67
2024-01-12T18:17:17.025Z,26.57
2024-01-12T18:19:43.960Z,27.83
2024-01-12T18:22:10.414Z,27.13
2024-01-12T18:24:36.592Z,28.37
2024-01-12T18:27:02.956Z,27.10
2024-01-12T18:29:29.195Z,25.60
2024-01-12T18:31:56.812Z,28.67
2024-01-12T18:34:23.315Z,28.80
2024-01-12T18:36:50.343Z,28.43
2024-01-12T18:39:16.534Z,28.30
2024-01-12T18:41:42.797Z,27.77
2024-01-12T18:44:09.065Z,28.20
2024-01-12T18:46:35.313Z,26.50
2024-01-12T18:49:01.803Z,27.23
2024-01-12T18:51:28.259Z,27.27
2024-01-12T18:53:55.153Z,25.30
2024-01-12T18:56:21.497Z,26.43
2024-01-12T18:58:47.771Z,26.63
2024-01-12T19:01:14.017Z,28.13
2024-01-12T19:03:41.444Z,27.10
2024-01-12T19:06:08.031Z,27.43
2024-01-12T19:08:34.316Z,26.50
2024-01-12T19:11:01.214Z,26.80
2024-01-12T19:13:27.418Z,27.03
2024-01-12T19:15:53.738Z,26.90
2024-01-12T19:18:20.095Z,27.47
2024-01-12T19:20:46.753Z,23.70
2024-01-12T19:23:13.199Z,25.33
2024-01-12T19:25:39.461Z,27.17
2024-01-12T19:28:06.571Z,26.73
2024-01-12T19:30:32.902Z,26.07
2024-01-12T19:33:00.159Z,24.97
2024-01-12T19:35:26.718Z,26.73
2024-01-12T19:37:53.853Z,27.07
2024-01-12T19:40:20.066Z,26.53
2024-01-12T19:42:46.273Z,26.70
2024-01-12T19:45:13.441Z,27.77
2024-01-12T19:47:42.340Z,27.27
2024-01-12T19:50:09.291Z,26.27
2024-01-12T19:52:35.576Z,27.13
2024-01-12T19:55:03.556Z,25.20
2024-01-12T19:57:29.758Z,25.77
2024-01-12T19:59:56.054Z,26.67
2024-01-12T20:02:23.164Z,25.17
2024-01-12T20:04:49.648Z,25.67
2024-01-12T20:07:16.200Z,26.60
2024-01-12T20:09:42.482Z,26.63
2024-01-12T20:12:08.913Z,26.40
2024-01-12T20:14:35.217Z,27.40
2024-01-12T20:17:03.298Z,27.07
2024-01-12T20:19:30.396Z,25.50
2024-01-12T20:22:00.166Z,25.97
2024-01-12T20:24:27.080Z,25.83
2024-01-12T20:26:53.277Z,26.70
2024-01-12T20:29:19.609Z,26.37
2024-01-12T20:31:45.879Z,26.10
2024-01-12T20:34:12.262Z,25.47
2024-01-12T20:36:39.445Z,26.77
2024-01-12T20:39:06.882Z,24.73
2024-01-12T20:41:33.154Z,25.70
2024-01-12T20:43:59.875Z,25.30
2024-01-12T20:46:26.156Z,26.43
2024-01-12T20:48:52.465Z,27.53
2024-01-12T20:51:18.826Z,25.57
2024-01-12T20:53:45.675Z,26.37
2024-01-12T20:56:11.908Z,27.73
2024-01-12T20:58:38.151Z,26.93
2024-01-12T21:01:04.610Z,26.33
2024-01-12T21:03:31.055Z,24.60
2024-01-12T21:05:57.376Z,25.37
2024-01-12T21:08:24.372Z,28.47
2024-01-12T21:10:51.245Z,32.40
2024-01-12T21:13:17.617Z,32.10
2024-01-12T21:15:43.790Z,33.07
2024-01-12T21:18:10.201Z,29.27
2024-01-12T21:20:36.530Z,28.90
2024-01-12T21:23:03.830Z,30.43
2024-01-12T21:25:30.334Z,28.97
2024-01-12T21:27:57.241Z,26.47
2024-01-12T21:30:24.555Z,27.50
2024-01-12T21:32:51.056Z,27.47
2024-01-12T21:35:18.251Z,27.77
2024-01-12T21:37:44.769Z,27.07
2024-01-12T21:40:12.424Z,27.80
2024-01-12T21:42:38.738Z,29.23
2024-01-12T21:45:06.959Z,26.97
2024-01-12T21:47:33.346Z,27.57
2024-01-12T21:49:59.670Z,28.10
2024-01-12T21:52:25.910Z,27.93
2024-01-12T21:54:52.235Z,26.90
2024-01-12T21:57:18.506Z,28.43
2024-01-12T21:59:44.754Z,27.23
2024-01-12T22:02:11.672Z,27.70
2024-01-12T22:04:37.879Z,27.87
2024-01-12T22:07:04.310Z,27.80
2024-01-12T22:09:30.879Z,27.90
2024-01-12T22:11:57.607Z,28.57
2024-01-12T22:14:23.795Z,27.93
2024-01-12T22:16:50.372Z,28.27
2024-01-12T22:19:17.595Z,30.03
2024-01-12T22:21:43.984Z,28.63
2024-01-12T22:24:11.333Z,28.07
2024-01-12T22:26:37.662Z,29.60
2024-01-12T22:29:04.382Z,28.33
2024-01-12T22:31:31.130Z,29.07
2024-01-12T22:33:58.141Z,29.53
2024-01-12T22:36:25.064Z,27.93
2024-01-12T22:38:51.469Z,27.63
2024-01-12T22:41:17.845Z,28.80
2024-01-12T22:43:44.011Z,28.43
2024-01-12T22:46:10.224Z,28.20
2024-01-12T22:48:36.634Z,26.80
2024-01-12T22:51:03.238Z,26.87
2024-01-12T22:53:30.153Z,27.90
2024-01-12T22:55:56.482Z,27.53
2024-01-12T22:58:22.657Z,26.40
2024-01-12T23:00:49.644Z,26.90
2024-01-12T23:03:15.958Z,28.17
2024-01-12T23:05:43.139Z,27.57
2024-01-12T23:08:09.377Z,28.40
2024-01-12T23:10:36.313Z,28.97
2024-01-12T23:13:02.643Z,28.10
2024-01-12T23:15:28.834Z,28.23
2024-01-12T23:17:55.166Z,28.33
2024-01-12T23:20:21.413Z,28.47
2024-01-12T23:22:47.663Z,27.40
2024-01-12T23:25:13.863Z,26.83
2024-01-12T23:27:40.851Z,27.30
2024-01-12T23:30:08.276Z,28.50
2024-01-12T23:32:35.905Z,28.73
2024-01-12T23:35:02.294Z,27.40
2024-01-12T23:37:28.789Z,28.67
2024-01-12T23:39:55.055Z,28.40
2024-01-12T23:42:21.868Z,28.53
2024-01-12T23:44:48.747Z,28.57
2024-01-12T23:47:14.937Z,28.90
2024-01-12T23:49:42.215Z,28.60
2024-01-12T23:52:08.623Z,28.50
2024-01-12T23:54:34.865Z,30.17
2024-01-12T23:57:01.123Z,30.17
2024-01-12T23:59:27.368Z,28.83
